createdAt,value
2023-02-27T00:01:55.245Z,8.18
2023-02-27T00:04:22.526Z,8.19
2023-02-27T00:06:49.747Z,8.11
2023-02-27T00:09:16.941Z,8.22
2023-02-27T00:11:44.401Z,8.28
2023-02-27T00:14:12.119Z,8.28
2023-02-27T00:16:39.362Z,8.24
2023-02-27T00:19:06.649Z,8.12
2023-02-27T00:21:36.457Z,8.18
2023-02-27T00:24:04.722Z,8.21
2023-02-27T00:26:31.976Z,8.06
2023-02-27T00:28:59.240Z,8.09
2023-02-27T00:31:30.932Z,8.14
2023-02-27T00:33:58.482Z,8.29
2023-02-27T00:36:25.685Z,8.30
2023-02-27T00:38:52.894Z,8.22
2023-02-27T00:41:20.105Z,8.02
2023-02-27T00:43:48.466Z,8.09
2023-02-27T00:46:15.687Z,8.01
2023-02-27T00:48:43.042Z,7.71
2023-02-27T00:51:12.470Z,7.90
2023-02-27T00:53:42.714Z,7.82
2023-02-27T00:56:12.768Z,7.89
2023-02-27T00:58:47.653Z,8.14
2023-02-27T01:01:15.017Z,8.31
2023-02-27T01:03:42.510Z,8.13
2023-02-27T01:06:09.910Z,8.20
2023-02-27T01:08:43.438Z,8.13
2023-02-27T01:11:10.907Z,8.09
2023-02-27T01:13:43.777Z,8.06
2023-02-27T01:16:14.176Z,8.01
2023-02-27T01:18:43.591Z,8.05
2023-02-27T01:21:13.015Z,8.04
2023-02-27T01:23:40.344Z,7.94
2023-02-27T01:26:08.186Z,7.96
2023-02-27T01:28:35.675Z,7.96
2023-02-27T01:31:02.951Z,8.16
2023-02-27T01:33:30.700Z,8.28
2023-02-27T01:35:59.317Z,8.19
2023-02-27T01:38:29.066Z,7.94
2023-02-27T01:40:59.077Z,8.27
2023-02-27T01:43:27.182Z,8.16
2023-02-27T01:45:58.685Z,8.08
2023-02-27T01:48:35.335Z,7.91
2023-02-27T01:51:16.072Z,7.90
2023-02-27T01:53:53.612Z,7.79
2023-02-27T01:56:25.518Z,7.84
2023-02-27T01:58:59.114Z,7.86
2023-02-27T02:01:28.199Z,8.07
2023-02-27T02:04:32.178Z,8.23
2023-02-27T02:07:31.310Z,8.06
2023-02-27T02:10:06.017Z,8.02
2023-02-27T02:12:39.017Z,7.90
2023-02-27T02:15:07.013Z,7.79
2023-02-27T02:17:55.417Z,7.92
2023-02-27T02:20:44.798Z,8.04
2023-02-27T02:23:46.038Z,7.99
2023-02-27T02:26:19.502Z,7.89
2023-02-27T02:29:17.037Z,7.87
2023-02-27T02:31:53.241Z,8.04
2023-02-27T02:34:38.562Z,8.04
2023-02-27T02:37:21.491Z,7.88
2023-02-27T02:40:28.294Z,7.77
2023-02-27T02:43:56.740Z,7.87
2023-02-27T02:46:58.614Z,8.01
2023-02-27T02:49:25.534Z,7.99
2023-02-27T02:52:06.127Z,7.88
2023-02-27T02:54:39.052Z,7.80
2023-02-27T02:57:13.677Z,7.70
2023-02-27T03:00:16.566Z,7.77
2023-02-27T03:02:55.044Z,7.68
2023-02-27T03:05:34.943Z,7.47
2023-02-27T03:08:25.712Z,7.50
2023-02-27T03:10:57.733Z,7.18
2023-02-27T03:13:40.053Z,7.09
2023-02-27T03:16:36.560Z,7.22
2023-02-27T03:19:13.524Z,7.26
2023-02-27T03:21:53.506Z,7.33
2023-02-27T03:24:38.105Z,7.16
2023-02-27T03:27:13.461Z,7.11
2023-02-27T03:29:56.668Z,7.16
2023-02-27T03:33:20.839Z,7.18
2023-02-27T03:36:04.489Z,7.10
2023-02-27T03:39:27.274Z,7.20
2023-02-27T03:42:02.700Z,7.30
2023-02-27T03:44:55.275Z,7.40
2023-02-27T03:47:22.588Z,7.49
2023-02-27T03:49:50.522Z,7.60
2023-02-27T03:52:23.072Z,7.73
2023-02-27T03:55:18.824Z,7.66
2023-02-27T03:57:51.608Z,7.56
2023-02-27T04:00:21.883Z,7.63
2023-02-27T04:02:51.506Z,7.65
2023-02-27T04:05:29.469Z,7.59
2023-02-27T04:08:18.510Z,7.63
2023-02-27T04:11:07.340Z,7.89
2023-02-27T04:14:01.476Z,7.62
2023-02-27T04:16:55.822Z,7.37
2023-02-27T04:19:51.233Z,7.38
2023-02-27T04:22:27.953Z,7.24
2023-02-27T04:25:06.019Z,7.19
2023-02-27T04:27:42.359Z,7.19
2023-02-27T04:30:37.745Z,7.17
2023-02-27T04:33:20.906Z,10.87
2023-02-27T04:35:57.905Z,9.52
2023-02-27T04:38:31.187Z,8.27
2023-02-27T04:41:01.941Z,8.10
2023-02-27T04:43:30.987Z,7.67
2023-02-27T04:46:22.468Z,7.44
2023-02-27T04:48:56.085Z,7.45
2023-02-27T04:51:33.297Z,7.46
2023-02-27T04:54:19.283Z,7.35
2023-02-27T04:56:59.695Z,7.31
2023-02-27T04:59:36.022Z,9.89
2023-02-27T05:02:06.763Z,8.15
2023-02-27T05:04:38.126Z,7.81
2023-02-27T05:07:10.943Z,7.73
2023-02-27T05:09:56.969Z,7.34
2023-02-27T05:12:52.233Z,7.08
2023-02-27T05:15:33.586Z,7.07
2023-02-27T05:18:04.086Z,6.98
2023-02-27T05:21:01.737Z,6.93
2023-02-27T05:23:48.340Z,6.75
2023-02-27T05:26:22.077Z,6.72
2023-02-27T05:29:07.377Z,6.73
2023-02-27T05:31:46.872Z,6.59
2023-02-27T05:34:41.409Z,6.46
2023-02-27T05:37:22.307Z,6.30
2023-02-27T05:39:52.006Z,6.50
2023-02-27T05:42:43.334Z,6.42
2023-02-27T05:45:25.637Z,6.50
2023-02-27T05:48:04.998Z,6.31
2023-02-27T05:50:34.945Z,6.53
2023-02-27T05:53:07.701Z,6.42
2023-02-27T05:55:52.138Z,6.25
2023-02-27T05:58:30.859Z,6.41
2023-02-27T06:01:21.179Z,6.38
2023-02-27T06:03:57.359Z,6.24
2023-02-27T06:06:30.537Z,6.07
2023-02-27T06:09:06.480Z,6.09
2023-02-27T06:11:34.964Z,6.28
2023-02-27T06:14:03.230Z,5.98
2023-02-27T06:16:31.586Z,6.14
2023-02-27T06:19:19.199Z,6.30
2023-02-27T06:21:46.262Z,6.12
2023-02-27T06:24:13.699Z,6.19
2023-02-27T06:26:40.739Z,6.26
2023-02-27T06:29:09.062Z,6.33
2023-02-27T06:31:41.649Z,6.10
2023-02-27T06:34:09.471Z,5.94
2023-02-27T06:36:36.802Z,6.04
2023-02-27T06:39:04.157Z,6.02
2023-02-27T06:41:34.526Z,6.14
2023-02-27T06:44:04.482Z,5.92
2023-02-27T06:46:31.912Z,5.97
2023-02-27T06:48:59.778Z,5.85
2023-02-27T06:51:45.180Z,6.05
2023-02-27T06:54:18.171Z,5.64
2023-02-27T06:56:51.357Z,5.58
2023-02-27T06:59:20.347Z,5.82
2023-02-27T07:01:49.667Z,6.07
2023-02-27T07:04:23.097Z,6.03
2023-02-27T07:07:35.268Z,6.10
2023-02-27T07:09:40.698Z,6.25
2023-02-27T07:12:08.357Z,6.37
2023-02-27T07:14:35.633Z,6.44
2023-02-27T07:17:03.037Z,6.15
2023-02-27T07:19:32.172Z,5.98
2023-02-27T07:22:05.615Z,5.91
2023-02-27T07:24:59.868Z,6.58
2023-02-27T07:27:36.997Z,7.65
2023-02-27T07:30:10.345Z,8.33
2023-02-27T07:32:52.642Z,9.06
2023-02-27T07:35:20.573Z,9.47
2023-02-27T07:37:50.707Z,9.05
2023-02-27T07:40:23.081Z,8.02
2023-02-27T07:42:53.376Z,8.03
2023-02-27T07:45:21.200Z,7.25
2023-02-27T07:47:48.774Z,7.55
2023-02-27T07:50:16.512Z,8.02
2023-02-27T07:52:50.138Z,8.92
2023-02-27T07:55:24.488Z,9.27
2023-02-27T07:57:54.311Z,9.20
2023-02-27T08:00:23.282Z,8.89
2023-02-27T08:02:51.671Z,8.21
2023-02-27T08:05:28.732Z,7.79
2023-02-27T08:07:57.478Z,8.31
2023-02-27T08:10:29.673Z,8.37
2023-02-27T08:12:59.533Z,8.21
2023-02-27T08:15:29.890Z,8.00
2023-02-27T08:18:01.260Z,7.70
2023-02-27T08:20:33.416Z,8.61
2023-02-27T08:23:00.655Z,9.01
2023-02-27T08:25:28.028Z,8.57
2023-02-27T08:27:57.023Z,8.43
2023-02-27T08:30:24.368Z,8.52
2023-02-27T08:32:52.427Z,8.22
2023-02-27T08:35:20.179Z,7.91
2023-02-27T08:37:47.593Z,8.32
2023-02-27T08:40:15.156Z,8.66
2023-02-27T08:42:42.457Z,8.75
2023-02-27T08:45:11.006Z,8.95
2023-02-27T08:47:38.312Z,8.93
2023-02-27T08:50:06.053Z,9.32
2023-02-27T08:52:33.245Z,8.95
2023-02-27T08:55:06.225Z,9.25
2023-02-27T08:57:35.808Z,9.01
2023-02-27T09:00:32.258Z,9.59
2023-02-27T09:03:05.432Z,9.07
2023-02-27T09:05:36.993Z,9.27
2023-02-27T09:08:04.680Z,9.17
2023-02-27T09:10:37.325Z,9.22
2023-02-27T09:13:10.756Z,9.90
2023-02-27T09:15:41.263Z,10.42
2023-02-27T09:18:10.193Z,10.87
2023-02-27T09:20:37.442Z,10.92
2023-02-27T09:23:04.805Z,10.43
2023-02-27T09:25:35.334Z,10.20
2023-02-27T09:28:13.264Z,10.12
2023-02-27T09:30:40.639Z,10.55
2023-02-27T09:33:07.923Z,11.13
2023-02-27T09:35:35.313Z,11.09
2023-02-27T09:38:02.596Z,11.30
2023-02-27T09:40:32.659Z,11.28
2023-02-27T09:43:28.591Z,10.72
2023-02-27T09:46:10.271Z,10.90
2023-02-27T09:48:53.324Z,11.10
2023-02-27T09:51:21.970Z,10.71
2023-02-27T09:53:52.404Z,10.55
2023-02-27T09:56:47.178Z,10.69
2023-02-27T09:59:42.580Z,10.86
2023-02-27T10:02:17.088Z,10.59
2023-02-27T10:04:46.929Z,10.91
2023-02-27T10:07:32.769Z,10.77
2023-02-27T10:10:06.154Z,10.78
2023-02-27T10:13:01.798Z,11.26
2023-02-27T10:15:51.598Z,10.47
2023-02-27T10:19:03.430Z,10.67
2023-02-27T10:22:00.929Z,11.33
2023-02-27T10:24:36.251Z,11.27
2023-02-27T10:27:07.370Z,11.63
2023-02-27T10:29:36.863Z,11.64
2023-02-27T10:32:17.519Z,11.88
2023-02-27T10:34:54.848Z,11.24
2023-02-27T10:37:25.305Z,11.74
2023-02-27T10:39:58.706Z,11.60
2023-02-27T10:42:30.432Z,11.53
2023-02-27T10:45:01.593Z,11.36
2023-02-27T10:47:28.995Z,11.75
2023-02-27T10:49:56.650Z,11.59
2023-02-27T10:52:23.970Z,12.39
2023-02-27T10:54:51.238Z,12.18
2023-02-27T10:57:27.607Z,12.27
2023-02-27T11:00:06.143Z,12.16
2023-02-27T11:02:43.171Z,12.44
2023-02-27T11:05:23.922Z,12.78
2023-02-27T11:08:10.236Z,12.64
2023-02-27T11:10:37.588Z,12.52
2023-02-27T11:13:18.704Z,12.48
2023-02-27T11:16:14.792Z,12.44
2023-02-27T11:18:50.239Z,12.36
2023-02-27T11:21:19.299Z,12.68
2023-02-27T11:23:56.365Z,12.80
2023-02-27T11:26:29.194Z,12.68
2023-02-27T11:29:16.755Z,12.61
2023-02-27T11:32:04.927Z,12.64
2023-02-27T11:34:50.016Z,12.38
2023-02-27T11:37:23.493Z,12.22
2023-02-27T11:43:37.194Z,12.45
2023-02-27T11:46:44.146Z,11.94
2023-02-27T11:49:45.258Z,11.48
2023-02-27T11:52:26.018Z,11.55
2023-02-27T11:54:58.563Z,11.45
2023-02-27T11:57:37.392Z,11.64
2023-02-27T12:00:35.992Z,11.62
2023-02-27T12:03:18.064Z,11.34
2023-02-27T12:06:08.491Z,11.09
2023-02-27T12:08:55.800Z,10.67
2023-02-27T12:11:35.260Z,10.83
2023-02-27T12:14:08.652Z,10.91
2023-02-27T12:16:50.175Z,10.73
2023-02-27T12:19:33.069Z,10.57
2023-02-27T12:22:17.466Z,10.99
2023-02-27T12:25:02.199Z,10.75
2023-02-27T12:27:59.283Z,10.06
2023-02-27T12:30:31.652Z,10.35
2023-02-27T12:33:20.337Z,10.52
2023-02-27T12:36:07.587Z,10.50
2023-02-27T12:38:37.907Z,10.08
2023-02-27T12:41:17.526Z,10.14
2023-02-27T12:44:38.626Z,10.21
2023-02-27T12:47:36.895Z,10.02
2023-02-27T12:50:18.150Z,10.23
2023-02-27T12:52:51.594Z,10.45
2023-02-27T12:55:21.521Z,10.38
2023-02-27T12:58:16.091Z,10.12
2023-02-27T13:01:00.877Z,10.04
2023-02-27T13:04:23.227Z,10.07
2023-02-27T13:07:10.426Z,9.98
2023-02-27T13:09:46.480Z,10.23
2023-02-27T13:12:22.997Z,10.56
2023-02-27T13:15:01.842Z,10.63
2023-02-27T13:17:39.316Z,10.72
2023-02-27T13:20:34.719Z,10.68
2023-02-27T13:23:27.901Z,10.92
2023-02-27T13:26:12.667Z,10.66
2023-02-27T13:28:40.244Z,10.31
2023-02-27T13:31:14.126Z,10.28
2023-02-27T13:33:48.449Z,10.47
2023-02-27T13:36:30.972Z,10.11
2023-02-27T13:38:58.433Z,10.67
2023-02-27T13:41:25.691Z,10.75
2023-02-27T13:43:58.326Z,10.37
2023-02-27T13:46:33.929Z,10.59
2023-02-27T13:49:04.342Z,10.42
2023-02-27T13:51:34.789Z,10.17
2023-02-27T13:54:14.001Z,10.09
2023-02-27T13:57:06.048Z,9.85
2023-02-27T13:59:36.046Z,9.81
2023-02-27T14:02:12.733Z,9.91
2023-02-27T14:04:55.031Z,10.02
2023-02-27T14:07:26.458Z,10.03
2023-02-27T14:10:11.171Z,10.34
2023-02-27T14:12:46.366Z,10.40
2023-02-27T14:15:23.289Z,10.24
2023-02-27T14:18:02.439Z,10.13
2023-02-27T14:20:41.046Z,10.48
2023-02-27T14:23:17.512Z,10.37
2023-02-27T14:25:53.923Z,10.22
2023-02-27T14:28:30.657Z,9.99
2023-02-27T14:31:13.035Z,9.71
2023-02-27T14:33:44.241Z,9.89
2023-02-27T14:36:33.119Z,9.78
2023-02-27T14:39:03.541Z,9.90
2023-02-27T14:41:37.162Z,9.73
2023-02-27T14:44:05.066Z,9.76
2023-02-27T14:46:37.611Z,9.60
2023-02-27T14:49:17.085Z,9.61
2023-02-27T14:51:44.719Z,9.61
2023-02-27T14:54:14.082Z,9.46
2023-02-27T14:56:55.243Z,9.60
2023-02-27T14:59:28.416Z,9.68
2023-02-27T15:01:58.257Z,9.55
2023-02-27T15:04:30.705Z,9.53
2023-02-27T15:07:00.436Z,9.50
2023-02-27T15:09:31.214Z,9.49
2023-02-27T15:12:04.080Z,9.47
2023-02-27T15:14:38.698Z,9.38
2023-02-27T15:17:27.652Z,9.54
2023-02-27T15:19:59.125Z,9.31
2023-02-27T15:22:38.420Z,9.35
2023-02-27T15:25:07.566Z,9.27
2023-02-27T15:27:35.654Z,9.13
2023-02-27T15:30:03.588Z,9.54
2023-02-27T15:32:37.985Z,9.23
2023-02-27T15:35:25.318Z,9.14
2023-02-27T15:37:55.288Z,9.39
2023-02-27T15:40:26.906Z,9.32
2023-02-27T15:42:57.092Z,9.17
2023-02-27T15:45:30.512Z,9.13
2023-02-27T15:47:58.670Z,9.03
2023-02-27T15:50:47.957Z,8.99
2023-02-27T15:53:26.827Z,8.90
2023-02-27T15:55:57.315Z,8.48
2023-02-27T15:58:26.087Z,8.78
2023-02-27T16:01:19.211Z,8.68
2023-02-27T16:04:13.821Z,8.73
2023-02-27T16:07:14.481Z,8.78
2023-02-27T16:10:06.092Z,8.58
2023-02-27T16:12:52.537Z,8.61
2023-02-27T16:15:39.402Z,8.66
2023-02-27T16:18:07.694Z,8.64
2023-02-27T16:20:46.395Z,8.57
2023-02-27T16:23:13.656Z,8.46
2023-02-27T16:25:42.863Z,8.37
2023-02-27T16:28:14.809Z,8.59
2023-02-27T16:30:42.409Z,8.42
2023-02-27T16:33:21.188Z,8.33
2023-02-27T16:35:49.019Z,8.28
2023-02-27T16:38:16.547Z,8.34
2023-02-27T16:40:44.657Z,8.10
2023-02-27T16:43:12.002Z,8.23
2023-02-27T16:45:50.098Z,8.23
2023-02-27T16:48:17.492Z,8.20
2023-02-27T16:50:44.745Z,8.09
2023-02-27T16:53:12.085Z,8.05
2023-02-27T16:55:40.516Z,7.97
2023-02-27T16:58:13.574Z,7.99
2023-02-27T17:00:41.288Z,8.01
2023-02-27T17:03:08.823Z,8.04
2023-02-27T17:05:36.434Z,7.82
2023-02-27T17:08:03.977Z,7.75
2023-02-27T17:10:31.246Z,7.76
2023-02-27T17:12:58.813Z,7.83
2023-02-27T17:15:26.174Z,7.94
2023-02-27T17:17:53.499Z,7.76
2023-02-27T17:20:20.914Z,7.64
2023-02-27T17:22:48.170Z,7.73
2023-02-27T17:25:15.453Z,7.51
2023-02-27T17:27:43.826Z,7.43
2023-02-27T17:30:12.504Z,7.44
2023-02-27T17:32:40.098Z,7.40
2023-02-27T17:35:07.792Z,7.36
2023-02-27T17:37:35.340Z,7.52
2023-02-27T17:40:03.974Z,7.55
2023-02-27T17:42:32.717Z,7.51
2023-02-27T17:45:00.562Z,7.44
2023-02-27T17:47:27.963Z,7.55
2023-02-27T17:49:55.269Z,7.48
2023-02-27T17:52:22.706Z,7.44
2023-02-27T17:54:50.610Z,7.53
2023-02-27T17:57:17.911Z,7.60
2023-02-27T17:59:45.144Z,7.52
2023-02-27T18:02:14.460Z,7.42
2023-02-27T18:04:41.911Z,7.41
2023-02-27T18:07:11.082Z,7.40
2023-02-27T18:09:38.421Z,7.22
2023-02-27T18:12:06.155Z,7.22
2023-02-27T18:14:33.477Z,7.36
2023-02-27T18:17:00.689Z,7.25
2023-02-27T18:19:27.989Z,7.27
2023-02-27T18:21:55.498Z,7.42
2023-02-27T18:24:22.830Z,7.40
2023-02-27T18:26:50.057Z,7.11
2023-02-27T18:29:17.375Z,7.05
2023-02-27T18:31:46.635Z,6.88
2023-02-27T18:34:14.693Z,6.96
2023-02-27T18:36:43.173Z,7.19
2023-02-27T18:39:10.698Z,6.96
2023-02-27T18:41:38.859Z,6.88
2023-02-27T18:44:08.001Z,7.00
2023-02-27T18:46:37.891Z,7.19
2023-02-27T18:49:05.222Z,7.07
2023-02-27T18:51:32.626Z,6.88
2023-02-27T18:54:00.303Z,6.97
2023-02-27T18:56:28.655Z,7.05
2023-02-27T18:59:02.743Z,6.96
2023-02-27T19:01:32.285Z,7.03
2023-02-27T19:04:09.955Z,7.09
2023-02-27T19:06:48.832Z,7.10
2023-02-27T19:09:22.374Z,7.13
2023-02-27T19:11:49.828Z,7.03
2023-02-27T19:14:18.638Z,7.05
2023-02-27T19:16:56.915Z,6.94
2023-02-27T19:19:33.396Z,7.10
2023-02-27T19:22:06.225Z,6.86
2023-02-27T19:24:34.190Z,6.88
2023-02-27T19:27:01.948Z,6.69
2023-02-27T19:29:34.635Z,6.55
2023-02-27T19:32:02.535Z,6.51
2023-02-27T19:34:34.938Z,6.55
2023-02-27T19:37:12.704Z,6.51
2023-02-27T19:39:41.256Z,6.40
2023-02-27T19:42:14.477Z,6.34
2023-02-27T19:44:41.756Z,6.29
2023-02-27T19:47:12.000Z,5.85
2023-02-27T19:49:39.435Z,6.10
2023-02-27T19:52:09.331Z,5.89
2023-02-27T19:54:41.409Z,5.96
2023-02-27T19:57:19.208Z,6.14
2023-02-27T19:59:48.113Z,6.40
2023-02-27T20:02:15.814Z,6.43
2023-02-27T20:04:46.116Z,6.57
2023-02-27T20:07:13.907Z,6.45
2023-02-27T20:09:42.405Z,6.32
2023-02-27T20:12:09.705Z,6.44
2023-02-27T20:14:37.026Z,6.24
2023-02-27T20:17:14.388Z,6.12
2023-02-27T20:19:50.921Z,6.15
2023-02-27T20:22:31.574Z,6.12
2023-02-27T20:25:02.698Z,6.21
2023-02-27T20:27:33.647Z,5.82
2023-02-27T20:30:01.804Z,5.83
2023-02-27T20:32:29.675Z,6.11
2023-02-27T20:35:02.388Z,6.40
2023-02-27T20:37:29.860Z,6.51
2023-02-27T20:39:57.336Z,6.67
2023-02-27T20:42:24.598Z,6.67
2023-02-27T20:44:55.068Z,6.45
2023-02-27T20:47:36.907Z,6.24
2023-02-27T20:50:16.003Z,6.39
2023-02-27T20:52:51.695Z,6.55
2023-02-27T20:55:28.500Z,6.52
2023-02-27T20:57:55.819Z,6.35
2023-02-27T21:00:23.424Z,6.36
2023-02-27T21:02:51.056Z,6.60
2023-02-27T21:05:18.348Z,6.53
2023-02-27T21:07:46.163Z,6.72
2023-02-27T21:10:22.517Z,6.59
2023-02-27T21:12:49.833Z,6.31
2023-02-27T21:15:17.301Z,6.29
2023-02-27T21:17:44.628Z,6.29
2023-02-27T21:20:12.631Z,5.94
2023-02-27T21:22:40.094Z,5.98
2023-02-27T21:25:07.720Z,5.81
2023-02-27T21:27:34.875Z,5.73
2023-02-27T21:30:05.923Z,5.94
2023-02-27T21:32:33.054Z,6.01
2023-02-27T21:35:12.584Z,5.94
2023-02-27T21:37:58.447Z,5.72
2023-02-27T21:40:39.102Z,5.90
2023-02-27T21:43:06.303Z,5.79
2023-02-27T21:45:36.565Z,6.08
2023-02-27T21:48:03.775Z,6.15
2023-02-27T21:50:40.605Z,6.18
2023-02-27T21:53:10.111Z,5.98
2023-02-27T21:55:38.731Z,6.00
2023-02-27T21:58:12.110Z,6.04
2023-02-27T22:00:45.970Z,5.98
2023-02-27T22:03:28.259Z,5.90
2023-02-27T22:05:55.503Z,6.09
2023-02-27T22:08:27.251Z,6.07
2023-02-27T22:11:14.333Z,5.82
2023-02-27T22:13:41.378Z,5.83
2023-02-27T22:16:11.973Z,6.03
2023-02-27T22:18:50.511Z,6.03
2023-02-27T22:21:47.767Z,5.93
2023-02-27T22:24:15.259Z,5.97
2023-02-27T22:26:43.572Z,5.73
2023-02-27T22:29:13.370Z,5.45
2023-02-27T22:31:44.555Z,5.49
2023-02-27T22:34:14.981Z,5.68
2023-02-27T22:36:42.763Z,5.78
2023-02-27T22:39:13.022Z,5.93
2023-02-27T22:41:42.515Z,6.07
2023-02-27T22:44:15.046Z,6.05
2023-02-27T22:46:48.499Z,5.99
2023-02-27T22:49:19.085Z,6.07
2023-02-27T22:51:51.675Z,6.18
2023-02-27T22:54:28.820Z,6.09
2023-02-27T22:56:58.023Z,5.88
2023-02-27T22:59:26.073Z,5.96
2023-02-27T23:01:53.240Z,6.18
2023-02-27T23:04:20.765Z,6.12
2023-02-27T23:06:52.560Z,5.90
2023-02-27T23:09:26.226Z,5.88
2023-02-27T23:11:58.969Z,6.12
2023-02-27T23:14:26.321Z,6.35
2023-02-27T23:16:53.672Z,6.59
2023-02-27T23:19:22.139Z,6.45
2023-02-27T23:21:49.779Z,6.15
2023-02-27T23:24:19.037Z,6.33
2023-02-27T23:26:53.617Z,6.41
2023-02-27T23:29:42.180Z,6.41
2023-02-27T23:32:09.518Z,6.20
2023-02-27T23:34:49.083Z,6.57
2023-02-27T23:37:26.048Z,6.26
2023-02-27T23:39:53.809Z,5.96
2023-02-27T23:42:29.110Z,6.07
2023-02-27T23:45:01.991Z,5.97
2023-02-27T23:47:29.103Z,5.72
2023-02-27T23:49:56.607Z,5.84
2023-02-27T23:52:23.745Z,5.81
2023-02-27T23:54:50.915Z,5.84
2023-02-27T23:57:18.003Z,5.73
2023-02-27T23:59:45.238Z,5.77
